createdAt,value
2023-06-04T00:00:59.582Z,101476.38
2023-06-04T00:03:26.392Z,101471.72
2023-06-04T00:05:53.064Z,101472.38
2023-06-04T00:08:19.660Z,101468.97
2023-06-04T00:10:46.201Z,101464.31
2023-06-04T00:13:12.809Z,101474.94
2023-06-04T00:15:39.344Z,101469.88
2023-06-04T00:18:06.186Z,101473.16
2023-06-04T00:20:32.850Z,101469.53
2023-06-04T00:22:59.481Z,101474.28
2023-06-04T00:25:26.413Z,101466.53
2023-06-04T00:27:53.055Z,101464.13
2023-06-04T00:30:19.581Z,101457.59
2023-06-04T00:32:48.164Z,101465.19
2023-06-04T00:35:15.182Z,101463.75
2023-06-04T00:37:41.707Z,101468.09
2023-06-04T00:40:08.792Z,101467.50
2023-06-04T00:42:35.332Z,101460.41
2023-06-04T00:45:01.969Z,101464.50
2023-06-04T00:47:28.509Z,101461.69
2023-06-04T00:49:59.101Z,101467.41
2023-06-04T00:52:26.441Z,101464.34
2023-06-04T00:54:55.535Z,101457.84
2023-06-04T00:57:23.628Z,101464.19
2023-06-04T00:59:50.789Z,101468.47
2023-06-04T01:02:27.181Z,101470.97
2023-06-04T01:05:02.607Z,101481.16
2023-06-04T01:07:29.797Z,101475.47
2023-06-04T01:09:56.689Z,101483.84
2023-06-04T01:12:23.523Z,101481.41
2023-06-04T01:14:50.364Z,101476.97
2023-06-04T01:17:41.988Z,101469.84
2023-06-04T01:20:21.268Z,101465.16
2023-06-04T01:23:43.831Z,101471.28
2023-06-04T01:26:11.686Z,101470.06
2023-06-04T01:28:38.992Z,101466.59
2023-06-04T01:31:08.747Z,101469.25
2023-06-04T01:33:36.589Z,101468.03
2023-06-04T01:36:03.475Z,101474.38
2023-06-04T01:38:30.016Z,101470.50
2023-06-04T01:40:58.447Z,101468.50
2023-06-04T01:43:24.963Z,101474.41
2023-06-04T01:45:51.643Z,101471.75
2023-06-04T01:48:18.889Z,101468.50
2023-06-04T01:50:45.429Z,101460.38
2023-06-04T01:53:12.064Z,101463.81
2023-06-04T01:55:38.709Z,101467.50
2023-06-04T01:58:06.105Z,101462.41
2023-06-04T02:00:32.633Z,101461.63
2023-06-04T02:03:00.793Z,101467.31
2023-06-04T02:05:27.840Z,101465.28
2023-06-04T02:07:54.417Z,101468.97
2023-06-04T02:10:21.467Z,101473.03
2023-06-04T02:13:04.373Z,101473.44
2023-06-04T02:15:32.879Z,101469.56
2023-06-04T02:18:17.899Z,101474.66
2023-06-04T02:20:48.989Z,101475.47
2023-06-04T02:23:17.194Z,101475.47
2023-06-04T02:25:46.876Z,101480.16
2023-06-04T02:28:14.439Z,101483.22
2023-06-04T02:30:41.340Z,101485.47
2023-06-04T02:33:10.814Z,101476.69
2023-06-04T02:35:38.321Z,101480.75
2023-06-04T02:38:04.909Z,101486.03
2023-06-04T02:40:31.522Z,101484.63
2023-06-04T02:42:58.038Z,101483.03
2023-06-04T02:45:24.595Z,101474.88
2023-06-04T02:47:51.260Z,101475.66
2023-06-04T02:50:18.494Z,101487.06
2023-06-04T02:52:45.164Z,101483.63
2023-06-04T02:55:13.413Z,101488.50
2023-06-04T02:57:44.163Z,101492.56
2023-06-04T03:00:15.537Z,101490.09
2023-06-04T03:02:44.813Z,101482.97
2023-06-04T03:05:13.910Z,101489.88
2023-06-04T03:07:43.717Z,101491.72
2023-06-04T03:10:11.696Z,101481.94
2023-06-04T03:12:38.291Z,101482.78
2023-06-04T03:15:05.824Z,101483.16
2023-06-04T03:17:33.260Z,101482.78
2023-06-04T03:19:59.856Z,101482.38
2023-06-04T03:22:26.804Z,101483.59
2023-06-04T03:24:53.512Z,101481.16
2023-06-04T03:27:20.915Z,101480.34
2023-06-04T03:29:47.540Z,101475.25
2023-06-04T03:32:14.133Z,101483.41
2023-06-04T03:34:41.787Z,101471.00
2023-06-04T03:37:08.330Z,101477.91
2023-06-04T03:39:34.896Z,101478.53
2023-06-04T03:42:01.736Z,101477.69
2023-06-04T03:44:28.427Z,101481.78
2023-06-04T03:46:55.050Z,101478.53
2023-06-04T03:49:22.922Z,101479.94
2023-06-04T03:51:49.546Z,101480.34
2023-06-04T03:54:17.899Z,101472.59
2023-06-04T03:56:47.855Z,101469.13
2023-06-04T03:59:14.820Z,101474.81
2023-06-04T04:01:41.474Z,101474.19
2023-06-04T04:04:08.149Z,101478.09
2023-06-04T04:06:34.936Z,101466.88
2023-06-04T04:09:01.567Z,101477.66
2023-06-04T04:11:28.103Z,101473.78
2023-06-04T04:13:54.739Z,101469.69
2023-06-04T04:16:21.500Z,101470.50
2023-06-04T04:18:48.130Z,101479.44
2023-06-04T04:21:14.766Z,101479.84
2023-06-04T04:23:41.976Z,101482.91
2023-06-04T04:26:09.509Z,101475.38
2023-06-04T04:28:36.171Z,101473.13
2023-06-04T04:31:05.604Z,101476.97
2023-06-04T04:33:37.992Z,101480.63
2023-06-04T04:36:04.657Z,101484.47
2023-06-04T04:38:34.718Z,101478.53
2023-06-04T04:41:01.921Z,101474.44
2023-06-04T04:43:33.496Z,101476.69
2023-06-04T04:46:00.775Z,101480.75
2023-06-04T04:48:27.905Z,101480.34
2023-06-04T04:50:55.107Z,101485.00
2023-06-04T04:53:21.857Z,101483.56
2023-06-04T04:55:48.569Z,101480.91
2023-06-04T04:58:16.020Z,101479.47
2023-06-04T05:00:43.026Z,101475.56
2023-06-04T05:03:09.713Z,101477.78
2023-06-04T05:05:36.351Z,101480.81
2023-06-04T05:08:03.421Z,101483.66
2023-06-04T05:10:30.026Z,101477.91
2023-06-04T05:12:59.808Z,101476.47
2023-06-04T05:15:27.905Z,101481.97
2023-06-04T05:17:55.032Z,101482.31
2023-06-04T05:20:22.522Z,101480.91
2023-06-04T05:22:49.513Z,101482.91
2023-06-04T05:25:17.603Z,101477.78
2023-06-04T05:27:44.176Z,101484.28
2023-06-04T05:30:11.349Z,101479.34
2023-06-04T05:32:41.735Z,101492.78
2023-06-04T05:35:09.239Z,101486.00
2023-06-04T05:37:36.482Z,101485.34
2023-06-04T05:40:04.007Z,101485.56
2023-06-04T05:42:30.547Z,101485.72
2023-06-04T05:44:57.150Z,101480.78
2023-06-04T05:47:23.916Z,101476.44
2023-06-04T05:49:50.494Z,101479.47
2023-06-04T05:52:17.065Z,101490.84
2023-06-04T05:54:43.637Z,101482.22
2023-06-04T05:57:10.168Z,101485.06
2023-06-04T05:59:36.687Z,101486.88
2023-06-04T06:02:03.706Z,101486.19
2023-06-04T06:04:30.949Z,101487.38
2023-06-04T06:06:57.935Z,101488.94
2023-06-04T06:09:24.579Z,101501.38
2023-06-04T06:11:51.232Z,101491.69
2023-06-04T06:14:17.776Z,101496.34
2023-06-04T06:16:44.340Z,101502.84
2023-06-04T06:19:12.274Z,101505.69
2023-06-04T06:21:38.844Z,101506.03
2023-06-04T06:24:05.615Z,101509.06
2023-06-04T06:26:32.908Z,101504.72
2023-06-04T06:28:59.723Z,101497.91
2023-06-04T06:31:27.184Z,101507.66
2023-06-04T06:33:53.905Z,101505.97
2023-06-04T06:36:21.044Z,101507.72
2023-06-04T06:38:47.578Z,101507.88
2023-06-04T06:41:14.232Z,101509.63
2023-06-04T06:43:40.933Z,101503.66
2023-06-04T06:46:07.977Z,101508.28
2023-06-04T06:48:34.685Z,101507.41
2023-06-04T06:51:01.392Z,101505.47
2023-06-04T06:53:27.878Z,101496.81
2023-06-04T06:55:54.413Z,101506.56
2023-06-04T06:58:20.969Z,101503.81
2023-06-04T07:00:47.650Z,101504.81
2023-06-04T07:03:14.505Z,101503.88
2023-06-04T07:05:41.114Z,101502.19
2023-06-04T07:08:07.815Z,101514.34
2023-06-04T07:10:34.421Z,101500.94
2023-06-04T07:13:00.980Z,101511.69
2023-06-04T07:15:27.503Z,101503.63
2023-06-04T07:17:54.128Z,101508.84
2023-06-04T07:20:20.723Z,101507.09
2023-06-04T07:22:47.358Z,101515.00
2023-06-04T07:25:13.925Z,101515.13
2023-06-04T07:27:40.588Z,101517.94
2023-06-04T07:30:08.709Z,101515.38
2023-06-04T07:32:35.276Z,101510.41
2023-06-04T07:35:03.311Z,101507.03
2023-06-04T07:37:29.824Z,101509.81
2023-06-04T07:39:56.442Z,101506.22
2023-06-04T07:42:23.000Z,101508.19
2023-06-04T07:44:49.534Z,101505.63
2023-06-04T07:47:16.166Z,101505.53
2023-06-04T07:49:58.049Z,101508.31
2023-06-04T07:52:28.699Z,101505.28
2023-06-04T07:54:55.304Z,101514.25
2023-06-04T07:57:21.886Z,101517.81
2023-06-04T07:59:48.378Z,101511.56
2023-06-04T08:02:16.054Z,101513.63
2023-06-04T08:04:42.766Z,101512.19
2023-06-04T08:07:09.500Z,101507.06
2023-06-04T08:09:36.339Z,101508.91
2023-06-04T08:12:02.913Z,101516.28
2023-06-04T08:14:29.430Z,101507.44
2023-06-04T08:16:56.093Z,101504.97
2023-06-04T08:19:22.737Z,101512.66
2023-06-04T08:21:49.466Z,101515.28
2023-06-04T08:24:16.370Z,101512.31
2023-06-04T08:26:43.026Z,101513.31
2023-06-04T08:29:09.693Z,101516.16
2023-06-04T08:31:36.368Z,101520.38
2023-06-04T08:34:06.258Z,101518.41
2023-06-04T08:36:34.108Z,101516.19
2023-06-04T08:39:00.823Z,101518.56
2023-06-04T08:41:42.644Z,101514.44
2023-06-04T08:44:10.564Z,101522.88
2023-06-04T08:46:41.195Z,101523.31
2023-06-04T08:49:08.664Z,101512.91
2023-06-04T08:51:40.406Z,101519.63
2023-06-04T08:54:11.534Z,101511.09
2023-06-04T08:56:38.100Z,101502.38
2023-06-04T08:59:08.521Z,101512.72
2023-06-04T09:01:38.363Z,101504.06
2023-06-04T09:04:06.378Z,101501.81
2023-06-04T09:06:34.425Z,101502.84
2023-06-04T09:09:08.440Z,101497.75
2023-06-04T09:11:39.098Z,101499.06
2023-06-04T09:14:09.583Z,101505.41
2023-06-04T09:16:56.622Z,101499.75
2023-06-04T09:19:23.569Z,101499.31
2023-06-04T09:21:55.906Z,101486.50
2023-06-04T09:24:24.706Z,101496.28
2023-06-04T09:26:51.920Z,101483.63
2023-06-04T09:29:19.046Z,101487.97
2023-06-04T09:31:48.289Z,101485.25
2023-06-04T09:34:16.056Z,101491.44
2023-06-04T09:36:42.812Z,101493.28
2023-06-04T09:39:17.372Z,101490.25
2023-06-04T09:41:44.160Z,101484.78
2023-06-04T09:44:13.062Z,101491.44
2023-06-04T09:46:40.078Z,101475.44
2023-06-04T09:49:07.073Z,101477.19
2023-06-04T09:51:34.203Z,101483.00
2023-06-04T09:54:03.835Z,101485.03
2023-06-04T09:56:31.022Z,101483.03
2023-06-04T09:59:04.162Z,101480.50
2023-06-04T10:01:31.566Z,101476.56
2023-06-04T10:04:03.550Z,101478.00
2023-06-04T10:06:35.542Z,101478.34
2023-06-04T10:09:06.307Z,101482.47
2023-06-04T10:11:48.070Z,101486.59
2023-06-04T10:14:23.131Z,101481.00
2023-06-04T10:16:52.257Z,101479.25
2023-06-04T10:19:19.878Z,101483.72
2023-06-04T10:21:47.084Z,101484.97
2023-06-04T10:24:15.533Z,101473.78
2023-06-04T10:26:43.602Z,101480.97
2023-06-04T10:29:11.895Z,101482.94
2023-06-04T10:31:38.724Z,101471.94
2023-06-04T10:34:05.478Z,101472.28
2023-06-04T10:36:32.199Z,101476.13
2023-06-04T10:38:58.752Z,101474.59
2023-06-04T10:41:26.186Z,101476.31
2023-06-04T10:44:01.601Z,101480.75
2023-06-04T10:46:42.493Z,101472.63
2023-06-04T10:49:12.635Z,101474.34
2023-06-04T10:51:39.246Z,101477.38
2023-06-04T10:54:05.894Z,101473.06
2023-06-04T10:56:38.584Z,101474.16
2023-06-04T10:59:16.685Z,101477.19
2023-06-04T11:01:43.713Z,101484.50
2023-06-04T11:04:24.243Z,101476.13
2023-06-04T11:07:04.730Z,101477.50
2023-06-04T11:09:34.854Z,101475.06
2023-06-04T11:12:02.006Z,101490.63
2023-06-04T11:14:28.549Z,101477.16
2023-06-04T11:16:55.093Z,101472.91
2023-06-04T11:19:21.739Z,101475.34
2023-06-04T11:21:49.340Z,101475.13
2023-06-04T11:24:17.338Z,101479.19
2023-06-04T11:26:50.548Z,101473.66
2023-06-04T11:29:23.680Z,101476.84
2023-06-04T11:31:50.366Z,101479.28
2023-06-04T11:34:43.449Z,101474.50
2023-06-04T11:37:10.913Z,101467.03
2023-06-04T11:39:40.075Z,101476.34
2023-06-04T11:42:08.260Z,101475.25
2023-06-04T11:44:35.396Z,101473.56
2023-06-04T11:47:02.070Z,101476.00
2023-06-04T11:49:29.411Z,101472.81
2023-06-04T11:51:56.142Z,101476.59
2023-06-04T11:54:23.750Z,101474.69
2023-06-04T11:56:51.779Z,101486.88
2023-06-04T11:59:19.112Z,101473.63
2023-06-04T12:01:47.738Z,101482.09
2023-06-04T12:04:18.877Z,101470.59
2023-06-04T12:06:55.432Z,101473.00
2023-06-04T12:09:23.379Z,101475.56
2023-06-04T12:11:50.694Z,101468.03
2023-06-04T12:14:23.286Z,101472.72
2023-06-04T12:16:57.522Z,101474.50
2023-06-04T12:19:24.630Z,101460.88
2023-06-04T12:22:07.869Z,101462.97
2023-06-04T12:24:40.509Z,101464.91
2023-06-04T12:27:12.319Z,101456.72
2023-06-04T12:29:38.930Z,101454.44
2023-06-04T12:32:12.413Z,101459.09
2023-06-04T12:34:41.427Z,101466.16
2023-06-04T12:37:09.046Z,101459.91
2023-06-04T12:39:37.902Z,101457.31
2023-06-04T12:42:06.902Z,101453.97
2023-06-04T12:44:35.695Z,101459.72
2023-06-04T12:47:03.177Z,101462.56
2023-06-04T12:49:29.850Z,101446.78
2023-06-04T12:51:56.397Z,101450.44
2023-06-04T12:54:23.053Z,101453.75
2023-06-04T12:56:50.154Z,101451.91
2023-06-04T12:59:17.058Z,101455.22
2023-06-04T13:01:43.794Z,101447.91
2023-06-04T13:04:10.857Z,101450.88
2023-06-04T13:06:38.077Z,101459.63
2023-06-04T13:09:09.922Z,101449.56
2023-06-04T13:11:44.022Z,101457.31
2023-06-04T13:14:11.340Z,101452.81
2023-06-04T13:16:41.379Z,101449.22
2023-06-04T13:19:08.268Z,101447.41
2023-06-04T13:21:35.959Z,101447.66
2023-06-04T13:24:03.020Z,101445.63
2023-06-04T13:26:29.585Z,101451.94
2023-06-04T13:28:56.165Z,101452.66
2023-06-04T13:31:22.810Z,101441.84
2023-06-04T13:33:49.434Z,101441.94
2023-06-04T13:36:16.213Z,101430.97
2023-06-04T13:38:44.188Z,101435.00
2023-06-04T13:41:11.327Z,101435.47
2023-06-04T13:43:37.924Z,101433.63
2023-06-04T13:46:04.817Z,101439.31
2023-06-04T13:48:31.391Z,101428.97
2023-06-04T13:50:57.955Z,101429.53
2023-06-04T13:53:24.459Z,101412.41
2023-06-04T13:55:51.732Z,101417.22
2023-06-04T13:58:18.311Z,101425.53
2023-06-04T14:00:44.869Z,101425.44
2023-06-04T14:03:11.636Z,101426.78
2023-06-04T14:05:38.396Z,101420.38
2023-06-04T14:08:05.184Z,101423.81
2023-06-04T14:10:31.759Z,101417.41
2023-06-04T14:12:58.274Z,101416.91
2023-06-04T14:15:24.809Z,101415.56
2023-06-04T14:17:51.447Z,101417.38
2023-06-04T14:20:18.047Z,101408.66
2023-06-04T14:22:44.558Z,101419.91
2023-06-04T14:25:11.406Z,101410.66
2023-06-04T14:27:38.085Z,101415.91
2023-06-04T14:30:06.395Z,101403.50
2023-06-04T14:32:35.031Z,101406.03
2023-06-04T14:35:01.863Z,101396.78
2023-06-04T14:37:28.437Z,101406.69
2023-06-04T14:39:55.039Z,101413.44
2023-06-04T14:42:21.788Z,101411.81
2023-06-04T14:44:48.326Z,101412.28
2023-06-04T14:47:15.193Z,101409.16
2023-06-04T14:49:41.772Z,101407.13
2023-06-04T14:52:08.312Z,101412.38
2023-06-04T14:54:35.951Z,101406.88
2023-06-04T14:57:03.051Z,101411.47
2023-06-04T14:59:29.886Z,101413.44
2023-06-04T15:01:56.678Z,101417.44
2023-06-04T15:04:23.768Z,101408.38
2023-06-04T15:06:50.926Z,101404.09
2023-06-04T15:09:17.492Z,101407.66
2023-06-04T15:11:44.110Z,101410.09
2023-06-04T15:14:10.728Z,101412.94
2023-06-04T15:16:37.316Z,101413.09
2023-06-04T15:19:04.140Z,101406.91
2023-06-04T15:21:31.001Z,101407.97
2023-06-04T15:23:57.786Z,101408.09
2023-06-04T15:26:25.902Z,101411.41
2023-06-04T15:28:52.458Z,101405.25
2023-06-04T15:31:19.177Z,101411.75
2023-06-04T15:33:45.819Z,101414.34
2023-06-04T15:36:12.410Z,101412.28
2023-06-04T15:38:38.977Z,101403.53
2023-06-04T15:41:05.705Z,101410.03
2023-06-04T15:43:32.304Z,101397.69
2023-06-04T15:45:59.103Z,101410.00
2023-06-04T15:48:28.590Z,101400.78
2023-06-04T15:50:55.260Z,101399.75
2023-06-04T15:53:23.918Z,101398.72
2023-06-04T15:55:51.716Z,101399.25
2023-06-04T15:58:18.353Z,101402.06
2023-06-04T16:00:45.378Z,101399.88
2023-06-04T16:03:12.044Z,101401.31
2023-06-04T16:05:38.705Z,101396.97
2023-06-04T16:08:05.292Z,101402.00
2023-06-04T16:10:32.957Z,101396.63
2023-06-04T16:12:59.573Z,101387.72
2023-06-04T16:15:26.385Z,101392.25
2023-06-04T16:17:53.013Z,101385.88
2023-06-04T16:20:20.179Z,101387.53
2023-06-04T16:22:47.159Z,101391.13
2023-06-04T16:25:18.567Z,101380.28
2023-06-04T16:27:48.433Z,101381.75
2023-06-04T16:30:15.312Z,101386.56
2023-06-04T16:32:42.098Z,101380.50
2023-06-04T16:35:10.540Z,101375.13
2023-06-04T16:37:38.133Z,101377.56
2023-06-04T16:40:05.779Z,101372.47
2023-06-04T16:42:32.393Z,101371.44
2023-06-04T16:44:58.972Z,101364.91
2023-06-04T16:47:25.714Z,101378.06
2023-06-04T16:49:53.222Z,101375.66
2023-06-04T16:52:19.822Z,101369.75
2023-06-04T16:54:47.290Z,101368.31
2023-06-04T16:57:13.885Z,101368.19
2023-06-04T16:59:45.794Z,101362.75
2023-06-04T17:02:12.862Z,101366.31
2023-06-04T17:04:39.447Z,101369.75
2023-06-04T17:07:06.375Z,101380.53
2023-06-04T17:09:33.733Z,101369.81
2023-06-04T17:12:00.950Z,101358.91
2023-06-04T17:14:28.005Z,101368.53
2023-06-04T17:16:54.665Z,101373.66
2023-06-04T17:19:21.310Z,101368.06
2023-06-04T17:21:47.809Z,101364.56
2023-06-04T17:24:14.409Z,101368.44
2023-06-04T17:26:41.111Z,101360.75
2023-06-04T17:29:07.689Z,101366.84
2023-06-04T17:31:34.250Z,101372.91
2023-06-04T17:34:00.957Z,101365.38
2023-06-04T17:36:28.016Z,101374.81
2023-06-04T17:38:54.554Z,101378.66
2023-06-04T17:41:21.760Z,101373.03
2023-06-04T17:43:48.309Z,101379.34
2023-06-04T17:46:14.948Z,101380.47
2023-06-04T17:48:41.799Z,101383.47
2023-06-04T17:51:08.389Z,101378.94
2023-06-04T17:53:34.979Z,101372.50
2023-06-04T17:56:01.960Z,101379.44
2023-06-04T17:58:28.486Z,101380.78
2023-06-04T18:00:55.053Z,101369.81
2023-06-04T18:03:21.761Z,101384.41
2023-06-04T18:05:48.466Z,101376.41
2023-06-04T18:08:15.327Z,101372.53
2023-06-04T18:10:42.994Z,101374.91
2023-06-04T18:13:09.636Z,101378.03
2023-06-04T18:15:36.299Z,101385.38
2023-06-04T18:18:03.006Z,101380.56
2023-06-04T18:20:29.535Z,101378.59
2023-06-04T18:22:56.151Z,101388.88
2023-06-04T18:25:24.800Z,101377.72
2023-06-04T18:27:51.307Z,101381.50
2023-06-04T18:30:18.066Z,101381.38
2023-06-04T18:32:47.895Z,101384.25
2023-06-04T18:35:15.632Z,101394.16
2023-06-04T18:37:43.534Z,101383.78
2023-06-04T18:40:13.112Z,101386.91
2023-06-04T18:42:40.641Z,101388.47
2023-06-04T18:45:10.458Z,101392.41
2023-06-04T18:47:38.075Z,101398.75
2023-06-04T18:50:05.535Z,101398.16
2023-06-04T18:52:34.290Z,101399.16
2023-06-04T18:55:01.354Z,101398.00
2023-06-04T18:57:27.926Z,101391.41
2023-06-04T18:59:54.543Z,101397.84
2023-06-04T19:02:21.131Z,101403.31
2023-06-04T19:04:47.721Z,101403.22
2023-06-04T19:07:14.391Z,101409.47
2023-06-04T19:09:41.012Z,101416.63
2023-06-04T19:12:07.871Z,101414.84
2023-06-04T19:14:35.005Z,101417.16
2023-06-04T19:17:03.369Z,101411.81
2023-06-04T19:19:30.235Z,101409.47
2023-06-04T19:21:56.812Z,101416.50
2023-06-04T19:24:23.369Z,101413.84
2023-06-04T19:26:50.056Z,101413.41
2023-06-04T19:29:16.668Z,101412.63
2023-06-04T19:31:43.350Z,101413.22
2023-06-04T19:34:10.218Z,101407.31
2023-06-04T19:36:36.879Z,101417.59
2023-06-04T19:39:03.502Z,101418.16
2023-06-04T19:41:30.073Z,101418.19
2023-06-04T19:43:56.641Z,101419.56
2023-06-04T19:46:23.218Z,101412.59
2023-06-04T19:48:50.100Z,101420.97
2023-06-04T19:51:16.850Z,101421.50
2023-06-04T19:53:43.484Z,101428.25
2023-06-04T19:56:10.114Z,101422.03
2023-06-04T19:58:36.714Z,101431.22
2023-06-04T20:01:03.343Z,101431.44
2023-06-04T20:03:32.456Z,101427.66
2023-06-04T20:05:59.185Z,101426.84
2023-06-04T20:08:27.056Z,101428.13
2023-06-04T20:10:53.615Z,101420.03
2023-06-04T20:13:20.180Z,101442.84
2023-06-04T20:15:46.936Z,101446.31
2023-06-04T20:18:13.528Z,101452.97
2023-06-04T20:20:40.627Z,101465.50
2023-06-04T20:23:07.140Z,101456.28
2023-06-04T20:25:33.990Z,101456.78
2023-06-04T20:28:00.527Z,101460.47
2023-06-04T20:30:27.281Z,101475.44
2023-06-04T20:32:56.922Z,101466.28
2023-06-04T20:35:23.611Z,101471.25
2023-06-04T20:37:50.170Z,101477.91
2023-06-04T20:40:17.073Z,101479.72
2023-06-04T20:42:43.634Z,101483.69
2023-06-04T20:45:10.753Z,101478.16
2023-06-04T20:47:37.468Z,101487.22
2023-06-04T20:50:04.260Z,101483.63
2023-06-04T20:52:30.811Z,101483.81
2023-06-04T20:54:57.385Z,101481.88
2023-06-04T20:57:23.970Z,101492.22
2023-06-04T20:59:50.530Z,101496.97
2023-06-04T21:02:17.261Z,101492.59
2023-06-04T21:04:43.912Z,101489.88
2023-06-04T21:07:12.447Z,101499.16
2023-06-04T21:09:39.654Z,101504.66
2023-06-04T21:12:07.136Z,101501.13
2023-06-04T21:14:33.770Z,101507.25
2023-06-04T21:17:00.405Z,101504.78
2023-06-04T21:19:29.611Z,101508.75
2023-06-04T21:21:57.186Z,101506.09
2023-06-04T21:24:23.820Z,101496.41
2023-06-04T21:26:50.426Z,101499.66
2023-06-04T21:29:17.199Z,101491.91
2023-06-04T21:31:43.804Z,101496.13
2023-06-04T21:34:11.239Z,101495.81
2023-06-04T21:36:37.803Z,101491.69
2023-06-04T21:39:04.539Z,101498.59
2023-06-04T21:41:31.229Z,101499.56
2023-06-04T21:43:57.872Z,101503.78
2023-06-04T21:46:27.106Z,101503.47
2023-06-04T21:48:54.750Z,101499.13
2023-06-04T21:51:21.625Z,101498.00
2023-06-04T21:53:48.611Z,101500.81
2023-06-04T21:56:15.342Z,101503.66
2023-06-04T21:58:41.938Z,101506.75
2023-06-04T22:01:09.957Z,101510.97
2023-06-04T22:03:37.001Z,101506.50
2023-06-04T22:06:03.863Z,101504.09
2023-06-04T22:08:30.660Z,101501.00
2023-06-04T22:10:57.718Z,101504.88
2023-06-04T22:13:24.370Z,101508.75
2023-06-04T22:15:51.002Z,101499.72
2023-06-04T22:18:17.662Z,101503.38
2023-06-04T22:20:44.250Z,101498.16
2023-06-04T22:23:10.852Z,101498.78
2023-06-04T22:25:37.491Z,101506.97
2023-06-04T22:28:04.047Z,101508.94
2023-06-04T22:30:30.636Z,101501.66
2023-06-04T22:32:57.236Z,101508.66
2023-06-04T22:35:23.798Z,101511.22
2023-06-04T22:37:50.431Z,101511.59
2023-06-04T22:40:17.059Z,101523.00
2023-06-04T22:42:43.631Z,101524.72
2023-06-04T22:45:10.543Z,101532.88
2023-06-04T22:47:37.223Z,101534.63
2023-06-04T22:50:04.281Z,101529.19
2023-06-04T22:52:31.693Z,101532.78
2023-06-04T22:54:58.267Z,101530.81
2023-06-04T22:57:24.974Z,101533.91
2023-06-04T22:59:52.835Z,101532.41
2023-06-04T23:02:19.452Z,101530.44
2023-06-04T23:04:46.061Z,101534.06
2023-06-04T23:07:12.604Z,101533.09
2023-06-04T23:09:39.161Z,101537.28
2023-06-04T23:12:06.152Z,101536.94
2023-06-04T23:14:32.649Z,101538.69
2023-06-04T23:16:59.245Z,101544.09
2023-06-04T23:19:25.864Z,101549.69
2023-06-04T23:21:52.423Z,101543.88
2023-06-04T23:24:18.994Z,101546.19
2023-06-04T23:26:45.678Z,101546.03
2023-06-04T23:29:12.233Z,101554.72
2023-06-04T23:31:38.829Z,101551.69
2023-06-04T23:34:05.679Z,101552.41
2023-06-04T23:36:32.213Z,101556.09
2023-06-04T23:38:58.993Z,101554.69
2023-06-04T23:41:27.188Z,101559.47
2023-06-04T23:43:53.796Z,101555.19
2023-06-04T23:46:20.539Z,101559.66
2023-06-04T23:48:47.149Z,101552.97
2023-06-04T23:51:14.086Z,101554.13
2023-06-04T23:53:41.045Z,101548.00
2023-06-04T23:56:07.601Z,101556.34
2023-06-04T23:58:34.167Z,101548.91
